sensor_id;sensor_type;location;lat;lon;timestamp;pressure;altitude;pressure_sealevel;temperature
15062;BMP180;7630;50.306;8.566;2023-09-08T00:01:49;98209.00;;;18.90
15062;BMP180;7630;50.306;8.566;2023-09-08T00:05:50;98209.00;;;18.60
15062;BMP180;7630;50.306;8.566;2023-09-08T00:09:51;98207.00;;;19.00
15062;BMP180;7630;50.306;8.566;2023-09-08T00:13:52;98205.00;;;19.20
15062;BMP180;7630;50.306;8.566;2023-09-08T00:17:53;98209.00;;;18.90
15062;BMP180;7630;50.306;8.566;2023-09-08T00:21:54;98206.00;;;18.70
15062;BMP180;7630;50.306;8.566;2023-09-08T00:25:55;98206.00;;;18.70
15062;BMP180;7630;50.306;8.566;2023-09-08T00:29:56;98200.00;;;18.60
15062;BMP180;7630;50.306;8.566;2023-09-08T00:33:57;98196.00;;;18.60
15062;BMP180;7630;50.306;8.566;2023-09-08T00:37:59;98196.00;;;18.50
15062;BMP180;7630;50.306;8.566;2023-09-08T00:42:00;98207.00;;;18.50
15062;BMP180;7630;50.306;8.566;2023-09-08T00:46:01;98198.00;;;18.40
15062;BMP180;7630;50.306;8.566;2023-09-08T00:50:04;98189.00;;;18.30
15062;BMP180;7630;50.306;8.566;2023-09-08T00:54:06;98184.00;;;18.30
15062;BMP180;7630;50.306;8.566;2023-09-08T00:58:08;98184.00;;;18.30
15062;BMP180;7630;50.306;8.566;2023-09-08T01:02:09;98188.00;;;18.20
15062;BMP180;7630;50.306;8.566;2023-09-08T01:06:10;98192.00;;;18.10
15062;BMP180;7630;50.306;8.566;2023-09-08T01:10:13;98195.00;;;18.10
15062;BMP180;7630;50.306;8.566;2023-09-08T01:14:19;98190.00;;;18.00
15062;BMP180;7630;50.306;8.566;2023-09-08T01:18:23;98202.00;;;18.00
15062;BMP180;7630;50.306;8.566;2023-09-08T01:27:04;98191.00;;;17.80
15062;BMP180;7630;50.306;8.566;2023-09-08T01:31:07;98149.00;;;17.90
15062;BMP180;7630;50.306;8.566;2023-09-08T01:35:10;98197.00;;;18.00
15062;BMP180;7630;50.306;8.566;2023-09-08T01:39:11;98199.00;;;17.40
15062;BMP180;7630;50.306;8.566;2023-09-08T01:43:12;98191.00;;;17.80
15062;BMP180;7630;50.306;8.566;2023-09-08T01:47:14;98190.00;;;18.10
15062;BMP180;7630;50.306;8.566;2023-09-08T01:51:15;98187.00;;;18.10
15062;BMP180;7630;50.306;8.566;2023-09-08T01:55:16;98186.00;;;18.10
15062;BMP180;7630;50.306;8.566;2023-09-08T01:59:17;98190.00;;;17.90
15062;BMP180;7630;50.306;8.566;2023-09-08T02:03:18;98190.00;;;17.80
15062;BMP180;7630;50.306;8.566;2023-09-08T02:07:20;98188.00;;;17.70
15062;BMP180;7630;50.306;8.566;2023-09-08T02:11:21;98183.00;;;17.60
15062;BMP180;7630;50.306;8.566;2023-09-08T02:15:22;98180.00;;;17.60
15062;BMP180;7630;50.306;8.566;2023-09-08T02:19:23;98183.00;;;17.50
15062;BMP180;7630;50.306;8.566;2023-09-08T02:23:24;98186.00;;;17.40
15062;BMP180;7630;50.306;8.566;2023-09-08T02:27:25;98193.00;;;17.30
15062;BMP180;7630;50.306;8.566;2023-09-08T02:31:27;98179.00;;;17.30
15062;BMP180;7630;50.306;8.566;2023-09-08T02:35:29;98179.00;;;17.20
15062;BMP180;7630;50.306;8.566;2023-09-08T02:39:31;98180.00;;;17.20
15062;BMP180;7630;50.306;8.566;2023-09-08T02:43:33;98179.00;;;17.10
15062;BMP180;7630;50.306;8.566;2023-09-08T02:47:34;98174.00;;;17.10
15062;BMP180;7630;50.306;8.566;2023-09-08T02:51:35;98180.00;;;17.00
15062;BMP180;7630;50.306;8.566;2023-09-08T02:55:36;98170.00;;;17.00
15062;BMP180;7630;50.306;8.566;2023-09-08T02:59:37;98170.00;;;17.10
15062;BMP180;7630;50.306;8.566;2023-09-08T03:03:39;98168.00;;;17.00
15062;BMP180;7630;50.306;8.566;2023-09-08T03:07:40;98173.00;;;16.90
15062;BMP180;7630;50.306;8.566;2023-09-08T03:11:41;98172.00;;;16.90
15062;BMP180;7630;50.306;8.566;2023-09-08T03:15:43;98170.00;;;16.90
15062;BMP180;7630;50.306;8.566;2023-09-08T03:19:47;98172.00;;;16.80
15062;BMP180;7630;50.306;8.566;2023-09-08T03:23:48;98163.00;;;16.70
15062;BMP180;7630;50.306;8.566;2023-09-08T03:27:49;98173.00;;;16.80
15062;BMP180;7630;50.306;8.566;2023-09-08T03:31:50;98164.00;;;16.70
15062;BMP180;7630;50.306;8.566;2023-09-08T03:35:51;98166.00;;;16.80
15062;BMP180;7630;50.306;8.566;2023-09-08T03:39:53;98172.00;;;16.70
15062;BMP180;7630;50.306;8.566;2023-09-08T03:43:54;98162.00;;;16.70
15062;BMP180;7630;50.306;8.566;2023-09-08T03:47:55;98158.00;;;16.70
15062;BMP180;7630;50.306;8.566;2023-09-08T03:51:56;98156.00;;;16.50
15062;BMP180;7630;50.306;8.566;2023-09-08T03:55:59;98181.00;;;16.70
15062;BMP180;7630;50.306;8.566;2023-09-08T04:00:00;98159.00;;;16.80
15062;BMP180;7630;50.306;8.566;2023-09-08T04:04:01;98142.00;;;16.40
15062;BMP180;7630;50.306;8.566;2023-09-08T04:08:03;98169.00;;;16.70
15062;BMP180;7630;50.306;8.566;2023-09-08T04:12:04;98171.00;;;16.80
15062;BMP180;7630;50.306;8.566;2023-09-08T04:16:06;98168.00;;;16.70
15062;BMP180;7630;50.306;8.566;2023-09-08T04:20:08;98169.00;;;16.70
15062;BMP180;7630;50.306;8.566;2023-09-08T04:24:09;98178.00;;;16.80
15062;BMP180;7630;50.306;8.566;2023-09-08T04:28:11;98173.00;;;16.80
15062;BMP180;7630;50.306;8.566;2023-09-08T04:32:12;98174.00;;;16.70
15062;BMP180;7630;50.306;8.566;2023-09-08T04:36:13;98176.00;;;16.60
15062;BMP180;7630;50.306;8.566;2023-09-08T04:40:16;98178.00;;;16.50
15062;BMP180;7630;50.306;8.566;2023-09-08T04:44:17;98175.00;;;16.60
15062;BMP180;7630;50.306;8.566;2023-09-08T04:48:18;98175.00;;;16.40
15062;BMP180;7630;50.306;8.566;2023-09-08T04:52:19;98158.00;;;16.40
15062;BMP180;7630;50.306;8.566;2023-09-08T04:56:21;98182.00;;;16.50
15062;BMP180;7630;50.306;8.566;2023-09-08T05:00:22;98181.00;;;16.30
15062;BMP180;7630;50.306;8.566;2023-09-08T05:04:23;98185.00;;;16.40
15062;BMP180;7630;50.306;8.566;2023-09-08T05:08:24;98187.00;;;16.30
15062;BMP180;7630;50.306;8.566;2023-09-08T05:12:26;98184.00;;;16.30
15062;BMP180;7630;50.306;8.566;2023-09-08T05:16:27;98201.00;;;16.40
15062;BMP180;7630;50.306;8.566;2023-09-08T05:20:39;98191.00;;;16.40
15062;BMP180;7630;50.306;8.566;2023-09-08T05:24:40;98187.00;;;16.40
15062;BMP180;7630;50.306;8.566;2023-09-08T05:28:41;98049.00;;;16.60
15062;BMP180;7630;50.306;8.566;2023-09-08T05:32:44;98189.00;;;16.80
15062;BMP180;7630;50.306;8.566;2023-09-08T05:36:45;98192.00;;;16.80
15062;BMP180;7630;50.306;8.566;2023-09-08T05:40:47;98188.00;;;16.90
15062;BMP180;7630;50.306;8.566;2023-09-08T05:44:48;98189.00;;;17.20
15062;BMP180;7630;50.306;8.566;2023-09-08T05:48:49;98196.00;;;17.50
15062;BMP180;7630;50.306;8.566;2023-09-08T05:52:51;98194.00;;;17.70
15062;BMP180;7630;50.306;8.566;2023-09-08T05:56:55;97920.00;;;17.90
15062;BMP180;7630;50.306;8.566;2023-09-08T06:00:56;98209.00;;;18.10
15062;BMP180;7630;50.306;8.566;2023-09-08T06:04:58;98208.00;;;18.40
15062;BMP180;7630;50.306;8.566;2023-09-08T06:08:59;98209.00;;;18.70
15062;BMP180;7630;50.306;8.566;2023-09-08T06:13:00;98200.00;;;19.10
15062;BMP180;7630;50.306;8.566;2023-09-08T06:17:02;98196.00;;;19.50
15062;BMP180;7630;50.306;8.566;2023-09-08T06:21:03;98203.00;;;19.80
15062;BMP180;7630;50.306;8.566;2023-09-08T06:25:05;98199.00;;;20.30
15062;BMP180;7630;50.306;8.566;2023-09-08T06:29:06;98197.00;;;20.70
15062;BMP180;7630;50.306;8.566;2023-09-08T06:33:08;98199.00;;;21.30
15062;BMP180;7630;50.306;8.566;2023-09-08T06:37:10;98191.00;;;21.80
15062;BMP180;7630;50.306;8.566;2023-09-08T06:41:11;98207.00;;;22.40
15062;BMP180;7630;50.306;8.566;2023-09-08T06:45:13;98199.00;;;23.00
15062;BMP180;7630;50.306;8.566;2023-09-08T06:49:14;98203.00;;;23.40
15062;BMP180;7630;50.306;8.566;2023-09-08T06:53:15;98199.00;;;24.00
15062;BMP180;7630;50.306;8.566;2023-09-08T06:57:18;98206.00;;;24.70
15062;BMP180;7630;50.306;8.566;2023-09-08T07:01:20;98202.00;;;24.40
15062;BMP180;7630;50.306;8.566;2023-09-08T07:05:22;98204.00;;;25.40
15062;BMP180;7630;50.306;8.566;2023-09-08T07:09:23;98205.00;;;25.50
15062;BMP180;7630;50.306;8.566;2023-09-08T07:13:24;98207.00;;;26.10
15062;BMP180;7630;50.306;8.566;2023-09-08T07:17:26;98204.00;;;26.30
15062;BMP180;7630;50.306;8.566;2023-09-08T07:21:27;98207.00;;;26.80
15062;BMP180;7630;50.306;8.566;2023-09-08T07:25:28;98200.00;;;27.30
15062;BMP180;7630;50.306;8.566;2023-09-08T07:29:30;98198.00;;;28.10
15062;BMP180;7630;50.306;8.566;2023-09-08T07:33:31;98193.00;;;28.00
15062;BMP180;7630;50.306;8.566;2023-09-08T07:37:32;98194.00;;;27.60
15062;BMP180;7630;50.306;8.566;2023-09-08T07:41:33;98198.00;;;27.20
15062;BMP180;7630;50.306;8.566;2023-09-08T07:45:35;98208.00;;;27.10
15062;BMP180;7630;50.306;8.566;2023-09-08T07:49:36;98206.00;;;27.50
15062;BMP180;7630;50.306;8.566;2023-09-08T07:53:38;98207.00;;;27.70
15062;BMP180;7630;50.306;8.566;2023-09-08T07:57:42;98205.00;;;27.20
15062;BMP180;7630;50.306;8.566;2023-09-08T08:01:44;98207.00;;;27.70
15062;BMP180;7630;50.306;8.566;2023-09-08T08:05:45;98209.00;;;27.20
15062;BMP180;7630;50.306;8.566;2023-09-08T08:09:46;98209.00;;;27.10
15062;BMP180;7630;50.306;8.566;2023-09-08T08:13:47;98211.00;;;26.70
15062;BMP180;7630;50.306;8.566;2023-09-08T08:17:49;98230.00;;;27.20
15062;BMP180;7630;50.306;8.566;2023-09-08T08:21:50;98156.00;;;27.10
15062;BMP180;7630;50.306;8.566;2023-09-08T08:25:52;98211.00;;;27.00
15062;BMP180;7630;50.306;8.566;2023-09-08T08:29:53;98220.00;;;27.60
15062;BMP180;7630;50.306;8.566;2023-09-08T08:33:54;98218.00;;;27.70
15062;BMP180;7630;50.306;8.566;2023-09-08T08:38:01;98212.00;;;27.30
15062;BMP180;7630;50.306;8.566;2023-09-08T08:42:07;98212.00;;;27.40
15062;BMP180;7630;50.306;8.566;2023-09-08T08:46:09;98216.00;;;27.10
15062;BMP180;7630;50.306;8.566;2023-09-08T08:50:11;98214.00;;;27.30
15062;BMP180;7630;50.306;8.566;2023-09-08T08:54:13;98230.00;;;27.60
15062;BMP180;7630;50.306;8.566;2023-09-08T08:58:14;98224.00;;;27.60
15062;BMP180;7630;50.306;8.566;2023-09-08T09:02:16;98225.00;;;27.00
15062;BMP180;7630;50.306;8.566;2023-09-08T09:06:18;98231.00;;;27.90
15062;BMP180;7630;50.306;8.566;2023-09-08T09:10:19;98218.00;;;27.40
15062;BMP180;7630;50.306;8.566;2023-09-08T09:14:21;98212.00;;;25.40
15062;BMP180;7630;50.306;8.566;2023-09-08T09:18:24;98208.00;;;26.40
15062;BMP180;7630;50.306;8.566;2023-09-08T09:22:27;98215.00;;;27.80
15062;BMP180;7630;50.306;8.566;2023-09-08T09:26:30;98208.00;;;28.10
15062;BMP180;7630;50.306;8.566;2023-09-08T09:30:51;98222.00;;;27.60
15062;BMP180;7630;50.306;8.566;2023-09-08T09:34:51;98218.00;;;27.40
15062;BMP180;7630;50.306;8.566;2023-09-08T09:39:01;98220.00;;;28.20
15062;BMP180;7630;50.306;8.566;2023-09-08T09:43:04;98222.00;;;27.70
15062;BMP180;7630;50.306;8.566;2023-09-08T09:47:06;98220.00;;;27.70
15062;BMP180;7630;50.306;8.566;2023-09-08T09:51:16;98225.00;;;28.10
15062;BMP180;7630;50.306;8.566;2023-09-08T09:55:20;98208.00;;;27.30
15062;BMP180;7630;50.306;8.566;2023-09-08T09:59:22;98206.00;;;26.60
15062;BMP180;7630;50.306;8.566;2023-09-08T10:03:25;98212.00;;;27.80
15062;BMP180;7630;50.306;8.566;2023-09-08T10:07:27;98205.00;;;28.60
15062;BMP180;7630;50.306;8.566;2023-09-08T10:11:29;98203.00;;;29.10
15062;BMP180;7630;50.306;8.566;2023-09-08T10:15:33;98200.00;;;28.60
15062;BMP180;7630;50.306;8.566;2023-09-08T10:19:35;98127.00;;;29.00
15062;BMP180;7630;50.306;8.566;2023-09-08T10:23:41;98200.00;;;28.90
15062;BMP180;7630;50.306;8.566;2023-09-08T10:27:47;98209.00;;;29.00
15062;BMP180;7630;50.306;8.566;2023-09-08T10:31:49;98192.00;;;28.90
15062;BMP180;7630;50.306;8.566;2023-09-08T10:35:51;98195.00;;;29.60
15062;BMP180;7630;50.306;8.566;2023-09-08T10:39:53;98194.00;;;29.50
15062;BMP180;7630;50.306;8.566;2023-09-08T10:43:56;98188.00;;;29.00
15062;BMP180;7630;50.306;8.566;2023-09-08T10:47:58;98188.00;;;29.20
15062;BMP180;7630;50.306;8.566;2023-09-08T10:52:08;98188.00;;;29.90
15062;BMP180;7630;50.306;8.566;2023-09-08T10:56:09;98181.00;;;29.60
15062;BMP180;7630;50.306;8.566;2023-09-08T11:00:17;98188.00;;;29.50
15062;BMP180;7630;50.306;8.566;2023-09-08T11:04:17;98184.00;;;30.20
15062;BMP180;7630;50.306;8.566;2023-09-08T11:08:20;98182.00;;;30.60
15062;BMP180;7630;50.306;8.566;2023-09-08T11:12:21;98185.00;;;30.70
15062;BMP180;7630;50.306;8.566;2023-09-08T11:16:24;98184.00;;;31.10
15062;BMP180;7630;50.306;8.566;2023-09-08T11:20:27;98190.00;;;31.20
15062;BMP180;7630;50.306;8.566;2023-09-08T11:24:30;98186.00;;;30.40
15062;BMP180;7630;50.306;8.566;2023-09-08T11:28:32;98182.00;;;29.70
15062;BMP180;7630;50.306;8.566;2023-09-08T11:32:34;98184.00;;;29.40
15062;BMP180;7630;50.306;8.566;2023-09-08T11:36:35;98187.00;;;29.30
15062;BMP180;7630;50.306;8.566;2023-09-08T11:40:37;98180.00;;;30.30
15062;BMP180;7630;50.306;8.566;2023-09-08T11:44:40;98179.00;;;30.30
15062;BMP180;7630;50.306;8.566;2023-09-08T11:48:42;98180.00;;;29.70
15062;BMP180;7630;50.306;8.566;2023-09-08T11:52:44;98184.00;;;30.70
15062;BMP180;7630;50.306;8.566;2023-09-08T11:56:46;98181.00;;;31.50
15062;BMP180;7630;50.306;8.566;2023-09-08T12:00:47;98181.00;;;32.30
15062;BMP180;7630;50.306;8.566;2023-09-08T12:04:50;98177.00;;;31.90
15062;BMP180;7630;50.306;8.566;2023-09-08T12:08:51;98180.00;;;32.90
15062;BMP180;7630;50.306;8.566;2023-09-08T12:12:54;98188.00;;;33.70
15062;BMP180;7630;50.306;8.566;2023-09-08T12:17:06;98177.00;;;32.70
15062;BMP180;7630;50.306;8.566;2023-09-08T12:21:10;98174.00;;;32.90
15062;BMP180;7630;50.306;8.566;2023-09-08T12:25:11;98179.00;;;31.90
15062;BMP180;7630;50.306;8.566;2023-09-08T12:29:13;98175.00;;;30.80
15062;BMP180;7630;50.306;8.566;2023-09-08T12:33:14;98161.00;;;30.40
15062;BMP180;7630;50.306;8.566;2023-09-08T12:37:21;98168.00;;;31.60
15062;BMP180;7630;50.306;8.566;2023-09-08T12:41:23;98167.00;;;32.60
15062;BMP180;7630;50.306;8.566;2023-09-08T12:45:26;98156.00;;;32.90
15062;BMP180;7630;50.306;8.566;2023-09-08T12:49:27;98153.00;;;31.40
15062;BMP180;7630;50.306;8.566;2023-09-08T12:53:34;98160.00;;;35.50
15062;BMP180;7630;50.306;8.566;2023-09-08T12:57:36;98159.00;;;37.30
15062;BMP180;7630;50.306;8.566;2023-09-08T13:01:38;98149.00;;;36.60
15062;BMP180;7630;50.306;8.566;2023-09-08T13:05:39;98154.00;;;37.40
15062;BMP180;7630;50.306;8.566;2023-09-08T13:09:41;98156.00;;;38.00
15062;BMP180;7630;50.306;8.566;2023-09-08T13:13:42;98161.00;;;36.90
15062;BMP180;7630;50.306;8.566;2023-09-08T13:17:43;98155.00;;;35.10
15062;BMP180;7630;50.306;8.566;2023-09-08T13:21:45;98147.00;;;33.40
15062;BMP180;7630;50.306;8.566;2023-09-08T13:25:46;98148.00;;;35.20
15062;BMP180;7630;50.306;8.566;2023-09-08T13:29:47;98148.00;;;36.70
15062;BMP180;7630;50.306;8.566;2023-09-08T13:33:49;98136.00;;;35.30
15062;BMP180;7630;50.306;8.566;2023-09-08T13:37:50;98130.00;;;33.90
15062;BMP180;7630;50.306;8.566;2023-09-08T13:41:53;98132.00;;;36.00
15062;BMP180;7630;50.306;8.566;2023-09-08T13:45:55;98131.00;;;36.60
15062;BMP180;7630;50.306;8.566;2023-09-08T13:49:56;98128.00;;;37.10
15062;BMP180;7630;50.306;8.566;2023-09-08T13:53:59;98128.00;;;37.70
15062;BMP180;7630;50.306;8.566;2023-09-08T13:58:02;98127.00;;;34.60
15062;BMP180;7630;50.306;8.566;2023-09-08T14:02:05;98125.00;;;35.10
15062;BMP180;7630;50.306;8.566;2023-09-08T14:06:08;98124.00;;;36.60
15062;BMP180;7630;50.306;8.566;2023-09-08T14:10:11;98124.00;;;37.00
15062;BMP180;7630;50.306;8.566;2023-09-08T14:14:14;98124.00;;;36.30
15062;BMP180;7630;50.306;8.566;2023-09-08T14:18:15;98128.00;;;36.20
15062;BMP180;7630;50.306;8.566;2023-09-08T14:22:17;98122.00;;;36.80
15062;BMP180;7630;50.306;8.566;2023-09-08T14:26:18;98125.00;;;36.20
15062;BMP180;7630;50.306;8.566;2023-09-08T14:30:20;98119.00;;;35.60
15062;BMP180;7630;50.306;8.566;2023-09-08T14:34:22;98122.00;;;35.10
15062;BMP180;7630;50.306;8.566;2023-09-08T14:38:23;98125.00;;;34.80
15062;BMP180;7630;50.306;8.566;2023-09-08T14:42:25;98121.00;;;35.40
15062;BMP180;7630;50.306;8.566;2023-09-08T14:46:26;98129.00;;;34.80
15062;BMP180;7630;50.306;8.566;2023-09-08T14:50:27;98121.00;;;35.00
15062;BMP180;7630;50.306;8.566;2023-09-08T14:54:28;98112.00;;;36.60
15062;BMP180;7630;50.306;8.566;2023-09-08T14:58:29;98119.00;;;36.50
15062;BMP180;7630;50.306;8.566;2023-09-08T15:02:32;98116.00;;;36.70
15062;BMP180;7630;50.306;8.566;2023-09-08T15:06:34;98110.00;;;37.10
15062;BMP180;7630;50.306;8.566;2023-09-08T15:10:35;98102.00;;;35.70
15062;BMP180;7630;50.306;8.566;2023-09-08T15:14:36;98105.00;;;33.90
15062;BMP180;7630;50.306;8.566;2023-09-08T15:18:37;98103.00;;;33.10
15062;BMP180;7630;50.306;8.566;2023-09-08T15:22:38;98116.00;;;33.50
15062;BMP180;7630;50.306;8.566;2023-09-08T15:26:40;98104.00;;;31.40
15062;BMP180;7630;50.306;8.566;2023-09-08T15:30:46;98108.00;;;34.00
15062;BMP180;7630;50.306;8.566;2023-09-08T15:34:49;98107.00;;;33.80
15062;BMP180;7630;50.306;8.566;2023-09-08T15:38:52;98102.00;;;33.80
15062;BMP180;7630;50.306;8.566;2023-09-08T15:42:53;98101.00;;;34.10
15062;BMP180;7630;50.306;8.566;2023-09-08T15:46:55;98097.00;;;34.50
15062;BMP180;7630;50.306;8.566;2023-09-08T15:50:56;98098.00;;;34.00
15062;BMP180;7630;50.306;8.566;2023-09-08T15:54:57;98120.00;;;32.50
15062;BMP180;7630;50.306;8.566;2023-09-08T15:58:58;98097.00;;;32.30
15062;BMP180;7630;50.306;8.566;2023-09-08T16:02:59;98096.00;;;32.40
15062;BMP180;7630;50.306;8.566;2023-09-08T16:07:00;98087.00;;;31.90
15062;BMP180;7630;50.306;8.566;2023-09-08T16:11:02;98094.00;;;30.70
15062;BMP180;7630;50.306;8.566;2023-09-08T16:15:03;98089.00;;;29.80
15062;BMP180;7630;50.306;8.566;2023-09-08T16:19:05;98092.00;;;30.40
15062;BMP180;7630;50.306;8.566;2023-09-08T16:23:06;98088.00;;;31.30
15062;BMP180;7630;50.306;8.566;2023-09-08T16:27:08;98086.00;;;32.00
15062;BMP180;7630;50.306;8.566;2023-09-08T16:31:09;98090.00;;;32.60
15062;BMP180;7630;50.306;8.566;2023-09-08T16:35:10;98092.00;;;32.40
15062;BMP180;7630;50.306;8.566;2023-09-08T16:39:12;98093.00;;;32.10
15062;BMP180;7630;50.306;8.566;2023-09-08T16:43:15;98085.00;;;31.70
15062;BMP180;7630;50.306;8.566;2023-09-08T16:47:16;98088.00;;;32.00
15062;BMP180;7630;50.306;8.566;2023-09-08T16:51:19;98092.00;;;32.00
15062;BMP180;7630;50.306;8.566;2023-09-08T16:55:21;98091.00;;;31.70
15062;BMP180;7630;50.306;8.566;2023-09-08T16:59:22;98097.00;;;31.30
15062;BMP180;7630;50.306;8.566;2023-09-08T17:03:23;98087.00;;;31.10
15062;BMP180;7630;50.306;8.566;2023-09-08T17:07:25;98090.00;;;30.50
15062;BMP180;7630;50.306;8.566;2023-09-08T17:11:26;98091.00;;;30.20
15062;BMP180;7630;50.306;8.566;2023-09-08T17:15:27;98096.00;;;30.80
15062;BMP180;7630;50.306;8.566;2023-09-08T17:19:28;98092.00;;;31.10
15062;BMP180;7630;50.306;8.566;2023-09-08T17:23:30;98087.00;;;29.50
15062;BMP180;7630;50.306;8.566;2023-09-08T17:27:31;98095.00;;;29.00
15062;BMP180;7630;50.306;8.566;2023-09-08T17:31:32;98091.00;;;29.60
15062;BMP180;7630;50.306;8.566;2023-09-08T17:35:37;98089.00;;;29.60
15062;BMP180;7630;50.306;8.566;2023-09-08T17:39:38;98095.00;;;29.50
15062;BMP180;7630;50.306;8.566;2023-09-08T17:43:39;98095.00;;;29.40
15062;BMP180;7630;50.306;8.566;2023-09-08T17:47:41;98102.00;;;29.00
15062;BMP180;7630;50.306;8.566;2023-09-08T17:51:42;98104.00;;;28.40
15062;BMP180;7630;50.306;8.566;2023-09-08T17:55:43;98107.00;;;28.00
15062;BMP180;7630;50.306;8.566;2023-09-08T17:59:44;98104.00;;;27.80
15062;BMP180;7630;50.306;8.566;2023-09-08T18:03:46;98101.00;;;27.60
15062;BMP180;7630;50.306;8.566;2023-09-08T18:07:48;98098.00;;;27.30
15062;BMP180;7630;50.306;8.566;2023-09-08T18:11:49;98100.00;;;26.60
15062;BMP180;7630;50.306;8.566;2023-09-08T18:16:02;98099.00;;;26.00
15062;BMP180;7630;50.306;8.566;2023-09-08T18:20:05;98098.00;;;26.30
15062;BMP180;7630;50.306;8.566;2023-09-08T18:24:06;98099.00;;;26.10
15062;BMP180;7630;50.306;8.566;2023-09-08T18:28:07;98097.00;;;26.10
15062;BMP180;7630;50.306;8.566;2023-09-08T18:32:09;98098.00;;;25.80
15062;BMP180;7630;50.306;8.566;2023-09-08T18:36:10;98104.00;;;25.40
15062;BMP180;7630;50.306;8.566;2023-09-08T18:40:12;98107.00;;;25.40
15062;BMP180;7630;50.306;8.566;2023-09-08T18:44:13;98104.00;;;25.30
15062;BMP180;7630;50.306;8.566;2023-09-08T18:48:15;98113.00;;;25.00
15062;BMP180;7630;50.306;8.566;2023-09-08T18:52:16;98095.00;;;24.90
15062;BMP180;7630;50.306;8.566;2023-09-08T18:56:17;98103.00;;;24.80
15062;BMP180;7630;50.306;8.566;2023-09-08T19:00:19;98111.00;;;24.60
15062;BMP180;7630;50.306;8.566;2023-09-08T19:04:20;98114.00;;;24.50
15062;BMP180;7630;50.306;8.566;2023-09-08T19:08:21;98112.00;;;24.30
15062;BMP180;7630;50.306;8.566;2023-09-08T19:12:22;98112.00;;;24.10
15062;BMP180;7630;50.306;8.566;2023-09-08T19:16:23;98113.00;;;23.90
15062;BMP180;7630;50.306;8.566;2023-09-08T19:20:24;98115.00;;;23.80
15062;BMP180;7630;50.306;8.566;2023-09-08T19:24:26;98115.00;;;23.70
15062;BMP180;7630;50.306;8.566;2023-09-08T19:28:27;98113.00;;;23.40
15062;BMP180;7630;50.306;8.566;2023-09-08T19:32:28;98116.00;;;23.30
15062;BMP180;7630;50.306;8.566;2023-09-08T19:36:30;98118.00;;;23.30
15062;BMP180;7630;50.306;8.566;2023-09-08T19:40:31;98123.00;;;23.20
15062;BMP180;7630;50.306;8.566;2023-09-08T19:44:32;98116.00;;;22.80
15062;BMP180;7630;50.306;8.566;2023-09-08T19:48:34;98116.00;;;22.80
15062;BMP180;7630;50.306;8.566;2023-09-08T19:52:35;98112.00;;;22.90
15062;BMP180;7630;50.306;8.566;2023-09-08T19:56:38;98116.00;;;22.90
15062;BMP180;7630;50.306;8.566;2023-09-08T20:00:39;98108.00;;;22.80
15062;BMP180;7630;50.306;8.566;2023-09-08T20:04:40;98110.00;;;22.60
15062;BMP180;7630;50.306;8.566;2023-09-08T20:08:43;98107.00;;;22.60
15062;BMP180;7630;50.306;8.566;2023-09-08T20:12:44;98102.00;;;22.50
15062;BMP180;7630;50.306;8.566;2023-09-08T20:16:47;98106.00;;;22.40
15062;BMP180;7630;50.306;8.566;2023-09-08T20:20:54;98109.00;;;22.30
15062;BMP180;7630;50.306;8.566;2023-09-08T20:24:55;98095.00;;;21.90
15062;BMP180;7630;50.306;8.566;2023-09-08T20:28:56;98101.00;;;22.10
15062;BMP180;7630;50.306;8.566;2023-09-08T20:32:57;98108.00;;;22.00
15062;BMP180;7630;50.306;8.566;2023-09-08T20:36:59;98106.00;;;22.00
15062;BMP180;7630;50.306;8.566;2023-09-08T20:41:00;98105.00;;;21.90
15062;BMP180;7630;50.306;8.566;2023-09-08T20:45:01;98101.00;;;21.80
15062;BMP180;7630;50.306;8.566;2023-09-08T20:49:02;98110.00;;;21.80
15062;BMP180;7630;50.306;8.566;2023-09-08T20:53:04;98106.00;;;21.30
15062;BMP180;7630;50.306;8.566;2023-09-08T20:57:05;98114.00;;;21.40
15062;BMP180;7630;50.306;8.566;2023-09-08T21:01:06;98100.00;;;21.50
15062;BMP180;7630;50.306;8.566;2023-09-08T21:05:08;98095.00;;;21.50
15062;BMP180;7630;50.306;8.566;2023-09-08T21:09:09;98092.00;;;21.30
15062;BMP180;7630;50.306;8.566;2023-09-08T21:13:10;98093.00;;;21.40
15062;BMP180;7630;50.306;8.566;2023-09-08T21:17:11;98093.00;;;21.30
15062;BMP180;7630;50.306;8.566;2023-09-08T21:21:12;98094.00;;;21.00
15062;BMP180;7630;50.306;8.566;2023-09-08T21:25:14;98097.00;;;20.90
15062;BMP180;7630;50.306;8.566;2023-09-08T21:29:15;98087.00;;;20.90
15062;BMP180;7630;50.306;8.566;2023-09-08T21:33:16;98090.00;;;20.90
15062;BMP180;7630;50.306;8.566;2023-09-08T21:37:18;98081.00;;;20.70
15062;BMP180;7630;50.306;8.566;2023-09-08T21:41:19;98081.00;;;20.60
15062;BMP180;7630;50.306;8.566;2023-09-08T21:45:20;98083.00;;;20.50
15062;BMP180;7630;50.306;8.566;2023-09-08T21:49:22;98084.00;;;20.60
15062;BMP180;7630;50.306;8.566;2023-09-08T21:53:23;98073.00;;;20.50
15062;BMP180;7630;50.306;8.566;2023-09-08T21:57:25;98078.00;;;20.50
15062;BMP180;7630;50.306;8.566;2023-09-08T22:01:26;98078.00;;;20.30
15062;BMP180;7630;50.306;8.566;2023-09-08T22:05:27;98076.00;;;20.30
15062;BMP180;7630;50.306;8.566;2023-09-08T22:09:28;98072.00;;;20.20
15062;BMP180;7630;50.306;8.566;2023-09-08T22:13:29;98076.00;;;20.20
15062;BMP180;7630;50.306;8.566;2023-09-08T22:17:30;98084.00;;;20.20
15062;BMP180;7630;50.306;8.566;2023-09-08T22:21:33;98070.00;;;20.00
15062;BMP180;7630;50.306;8.566;2023-09-08T22:25:34;98073.00;;;20.00
15062;BMP180;7630;50.306;8.566;2023-09-08T22:29:35;98069.00;;;19.90
15062;BMP180;7630;50.306;8.566;2023-09-08T22:33:36;98070.00;;;19.80
15062;BMP180;7630;50.306;8.566;2023-09-08T22:37:38;98065.00;;;19.90
15062;BMP180;7630;50.306;8.566;2023-09-08T22:41:39;98063.00;;;19.80
15062;BMP180;7630;50.306;8.566;2023-09-08T22:45:42;98055.00;;;19.70
15062;BMP180;7630;50.306;8.566;2023-09-08T22:50:03;98082.00;;;19.60
15062;BMP180;7630;50.306;8.566;2023-09-08T22:54:11;98056.00;;;19.50
15062;BMP180;7630;50.306;8.566;2023-09-08T22:58:13;98055.00;;;19.40
15062;BMP180;7630;50.306;8.566;2023-09-08T23:02:16;98047.00;;;19.40
15062;BMP180;7630;50.306;8.566;2023-09-08T23:06:17;98050.00;;;19.60
15062;BMP180;7630;50.306;8.566;2023-09-08T23:10:19;98049.00;;;19.40
15062;BMP180;7630;50.306;8.566;2023-09-08T23:14:20;98044.00;;;19.40
15062;BMP180;7630;50.306;8.566;2023-09-08T23:18:21;98054.00;;;19.50
15062;BMP180;7630;50.306;8.566;2023-09-08T23:22:23;98052.00;;;19.70
15062;BMP180;7630;50.306;8.566;2023-09-08T23:26:24;98053.00;;;19.70
15062;BMP180;7630;50.306;8.566;2023-09-08T23:30:27;98051.00;;;19.50
15062;BMP180;7630;50.306;8.566;2023-09-08T23:34:28;98055.00;;;19.40
15062;BMP180;7630;50.306;8.566;2023-09-08T23:38:29;98063.00;;;19.20